sensor_id;sensor_type;location;lat;lon;timestamp;P1;durP1;ratioP1;P2;durP2;ratioP2
47403;SDS011;33157;51.508;4.288;2023-02-28T00:02:20;6.47;;;3.05;;
47403;SDS011;33157;51.508;4.288;2023-02-28T00:07:23;9.07;;;3.13;;
47403;SDS011;33157;51.508;4.288;2023-02-28T00:12:30;6.28;;;3.17;;
47403;SDS011;33157;51.508;4.288;2023-02-28T00:17:32;6.15;;;3.15;;
47403;SDS011;33157;51.508;4.288;2023-02-28T00:22:34;6.30;;;3.15;;
47403;SDS011;33157;51.508;4.288;2023-02-28T00:27:38;7.70;;;3.30;;
47403;SDS011;33157;51.508;4.288;2023-02-28T00:32:40;5.97;;;3.28;;
47403;SDS011;33157;51.508;4.288;2023-02-28T00:37:49;6.27;;;3.13;;
47403;SDS011;33157;51.508;4.288;2023-02-28T00:43:05;6.63;;;3.20;;
47403;SDS011;33157;51.508;4.288;2023-02-28T00:48:08;7.63;;;3.03;;
47403;SDS011;33157;51.508;4.288;2023-02-28T00:58:18;7.93;;;3.08;;
47403;SDS011;33157;51.508;4.288;2023-02-28T01:03:22;6.07;;;3.25;;
47403;SDS011;33157;51.508;4.288;2023-02-28T01:08:28;5.00;;;2.80;;
47403;SDS011;33157;51.508;4.288;2023-02-28T01:13:31;6.60;;;2.83;;
47403;SDS011;33157;51.508;4.288;2023-02-28T01:18:32;7.85;;;3.30;;
47403;SDS011;33157;51.508;4.288;2023-02-28T01:23:39;8.98;;;3.00;;
47403;SDS011;33157;51.508;4.288;2023-02-28T01:28:42;7.00;;;2.88;;
47403;SDS011;33157;51.508;4.288;2023-02-28T01:33:54;4.78;;;3.10;;
47403;SDS011;33157;51.508;4.288;2023-02-28T01:38:58;6.88;;;3.03;;
47403;SDS011;33157;51.508;4.288;2023-02-28T01:44:03;5.25;;;2.70;;
47403;SDS011;33157;51.508;4.288;2023-02-28T01:49:38;9.27;;;3.70;;
47403;SDS011;33157;51.508;4.288;2023-02-28T01:54:41;6.40;;;3.15;;
47403;SDS011;33157;51.508;4.288;2023-02-28T02:05:10;5.07;;;3.03;;
47403;SDS011;33157;51.508;4.288;2023-02-28T02:31:06;5.65;;;3.10;;
47403;SDS011;33157;51.508;4.288;2023-02-28T02:36:42;9.20;;;3.60;;
47403;SDS011;33157;51.508;4.288;2023-02-28T02:41:52;6.90;;;3.17;;
47403;SDS011;33157;51.508;4.288;2023-02-28T02:47:02;5.50;;;3.53;;
47403;SDS011;33157;51.508;4.288;2023-02-28T02:52:08;7.47;;;3.40;;
47403;SDS011;33157;51.508;4.288;2023-02-28T02:57:21;6.50;;;3.42;;
47403;SDS011;33157;51.508;4.288;2023-02-28T03:02:26;6.97;;;3.75;;
47403;SDS011;33157;51.508;4.288;2023-02-28T03:07:34;7.03;;;3.40;;
47403;SDS011;33157;51.508;4.288;2023-02-28T03:12:41;5.70;;;3.60;;
47403;SDS011;33157;51.508;4.288;2023-02-28T03:18:00;7.78;;;3.55;;
47403;SDS011;33157;51.508;4.288;2023-02-28T03:23:31;7.55;;;4.28;;
47403;SDS011;33157;51.508;4.288;2023-02-28T03:34:01;6.07;;;3.58;;
47403;SDS011;33157;51.508;4.288;2023-02-28T03:39:19;8.15;;;4.22;;
47403;SDS011;33157;51.508;4.288;2023-02-28T03:44:35;7.43;;;3.30;;
47403;SDS011;33157;51.508;4.288;2023-02-28T03:55:06;8.18;;;3.60;;
47403;SDS011;33157;51.508;4.288;2023-02-28T04:00:21;7.65;;;3.78;;
47403;SDS011;33157;51.508;4.288;2023-02-28T04:05:30;7.80;;;3.80;;
47403;SDS011;33157;51.508;4.288;2023-02-28T04:10:38;7.30;;;4.00;;
47403;SDS011;33157;51.508;4.288;2023-02-28T04:15:39;8.27;;;4.35;;
47403;SDS011;33157;51.508;4.288;2023-02-28T04:20:42;7.93;;;3.47;;
47403;SDS011;33157;51.508;4.288;2023-02-28T04:25:43;6.90;;;4.27;;
47403;SDS011;33157;51.508;4.288;2023-02-28T04:30:44;8.35;;;4.00;;
47403;SDS011;33157;51.508;4.288;2023-02-28T04:35:46;6.90;;;3.70;;
47403;SDS011;33157;51.508;4.288;2023-02-28T04:40:59;9.38;;;3.92;;
47403;SDS011;33157;51.508;4.288;2023-02-28T04:46:14;6.35;;;3.97;;
47403;SDS011;33157;51.508;4.288;2023-02-28T04:51:17;9.00;;;4.05;;
47403;SDS011;33157;51.508;4.288;2023-02-28T04:56:31;7.70;;;4.03;;
47403;SDS011;33157;51.508;4.288;2023-02-28T05:01:33;8.10;;;3.70;;
47403;SDS011;33157;51.508;4.288;2023-02-28T05:06:42;10.80;;;4.65;;
47403;SDS011;33157;51.508;4.288;2023-02-28T05:11:48;7.00;;;3.97;;
47403;SDS011;33157;51.508;4.288;2023-02-28T05:16:52;8.10;;;4.82;;
47403;SDS011;33157;51.508;4.288;2023-02-28T05:21:54;9.32;;;4.30;;
47403;SDS011;33157;51.508;4.288;2023-02-28T05:26:57;6.72;;;3.55;;
47403;SDS011;33157;51.508;4.288;2023-02-28T05:32:00;8.18;;;4.35;;
47403;SDS011;33157;51.508;4.288;2023-02-28T05:37:03;9.23;;;4.22;;
47403;SDS011;33157;51.508;4.288;2023-02-28T05:42:10;12.05;;;4.60;;
47403;SDS011;33157;51.508;4.288;2023-02-28T05:47:14;7.40;;;4.03;;
47403;SDS011;33157;51.508;4.288;2023-02-28T05:52:22;9.23;;;4.22;;
47403;SDS011;33157;51.508;4.288;2023-02-28T05:57:24;7.90;;;4.55;;
47403;SDS011;33157;51.508;4.288;2023-02-28T06:02:27;18.95;;;4.70;;
47403;SDS011;33157;51.508;4.288;2023-02-28T06:07:28;6.80;;;4.28;;
47403;SDS011;33157;51.508;4.288;2023-02-28T06:12:30;10.32;;;3.63;;
47403;SDS011;33157;51.508;4.288;2023-02-28T06:17:37;6.33;;;3.10;;
47403;SDS011;33157;51.508;4.288;2023-02-28T06:22:38;5.10;;;3.28;;
47403;SDS011;33157;51.508;4.288;2023-02-28T06:27:40;7.50;;;2.80;;
47403;SDS011;33157;51.508;4.288;2023-02-28T06:32:42;6.50;;;2.03;;
47403;SDS011;33157;51.508;4.288;2023-02-28T06:37:55;4.00;;;1.95;;
47403;SDS011;33157;51.508;4.288;2023-02-28T06:42:56;3.55;;;1.92;;
47403;SDS011;33157;51.508;4.288;2023-02-28T06:47:57;4.95;;;2.03;;
47403;SDS011;33157;51.508;4.288;2023-02-28T06:53:15;5.65;;;2.20;;
47403;SDS011;33157;51.508;4.288;2023-02-28T06:58:20;4.07;;;2.20;;
47403;SDS011;33157;51.508;4.288;2023-02-28T07:03:28;4.28;;;2.30;;
47403;SDS011;33157;51.508;4.288;2023-02-28T07:08:29;4.25;;;2.28;;
47403;SDS011;33157;51.508;4.288;2023-02-28T07:13:38;4.82;;;2.17;;
47403;SDS011;33157;51.508;4.288;2023-02-28T07:18:41;5.72;;;2.08;;
47403;SDS011;33157;51.508;4.288;2023-02-28T07:23:50;3.25;;;1.65;;
47403;SDS011;33157;51.508;4.288;2023-02-28T07:28:52;7.28;;;2.03;;
47403;SDS011;33157;51.508;4.288;2023-02-28T07:38:58;4.18;;;2.00;;
47403;SDS011;33157;51.508;4.288;2023-02-28T07:43:59;2.90;;;1.87;;
47403;SDS011;33157;51.508;4.288;2023-02-28T07:49:03;2.70;;;1.52;;
47403;SDS011;33157;51.508;4.288;2023-02-28T07:54:06;5.75;;;2.50;;
47403;SDS011;33157;51.508;4.288;2023-02-28T07:59:10;3.97;;;2.20;;
47403;SDS011;33157;51.508;4.288;2023-02-28T08:04:13;3.00;;;1.77;;
47403;SDS011;33157;51.508;4.288;2023-02-28T08:09:15;5.25;;;2.10;;
47403;SDS011;33157;51.508;4.288;2023-02-28T08:14:30;5.40;;;2.50;;
47403;SDS011;33157;51.508;4.288;2023-02-28T08:19:31;5.53;;;1.73;;
47403;SDS011;33157;51.508;4.288;2023-02-28T08:24:38;4.13;;;2.00;;
47403;SDS011;33157;51.508;4.288;2023-02-28T08:29:45;4.07;;;2.50;;
47403;SDS011;33157;51.508;4.288;2023-02-28T08:34:46;4.68;;;2.15;;
47403;SDS011;33157;51.508;4.288;2023-02-28T08:39:48;5.10;;;2.10;;
47403;SDS011;33157;51.508;4.288;2023-02-28T08:44:48;7.65;;;2.08;;
47403;SDS011;33157;51.508;4.288;2023-02-28T08:50:04;4.57;;;2.22;;
47403;SDS011;33157;51.508;4.288;2023-02-28T08:55:06;4.20;;;2.03;;
47403;SDS011;33157;51.508;4.288;2023-02-28T09:00:24;5.15;;;2.30;;
47403;SDS011;33157;51.508;4.288;2023-02-28T09:05:26;4.45;;;2.28;;
47403;SDS011;33157;51.508;4.288;2023-02-28T09:10:30;6.25;;;2.70;;
47403;SDS011;33157;51.508;4.288;2023-02-28T09:15:31;4.68;;;1.95;;
47403;SDS011;33157;51.508;4.288;2023-02-28T09:25:34;3.55;;;1.80;;
47403;SDS011;33157;51.508;4.288;2023-02-28T09:30:53;6.20;;;1.90;;
47403;SDS011;33157;51.508;4.288;2023-02-28T09:36:00;5.32;;;1.88;;
47403;SDS011;33157;51.508;4.288;2023-02-28T09:41:16;5.10;;;2.03;;
47403;SDS011;33157;51.508;4.288;2023-02-28T09:46:40;5.32;;;2.00;;
47403;SDS011;33157;51.508;4.288;2023-02-28T09:51:58;3.05;;;1.92;;
47403;SDS011;33157;51.508;4.288;2023-02-28T09:57:08;4.72;;;2.03;;
47403;SDS011;33157;51.508;4.288;2023-02-28T10:02:49;5.28;;;1.80;;
47403;SDS011;33157;51.508;4.288;2023-02-28T10:08:21;3.83;;;1.80;;
47403;SDS011;33157;51.508;4.288;2023-02-28T10:18:45;3.00;;;1.33;;
47403;SDS011;33157;51.508;4.288;2023-02-28T10:23:51;5.18;;;1.80;;
47403;SDS011;33157;51.508;4.288;2023-02-28T10:28:59;5.55;;;1.70;;
47403;SDS011;33157;51.508;4.288;2023-02-28T10:34:01;3.33;;;1.40;;
47403;SDS011;33157;51.508;4.288;2023-02-28T10:39:33;4.25;;;1.40;;
47403;SDS011;33157;51.508;4.288;2023-02-28T10:44:49;3.67;;;1.15;;
47403;SDS011;33157;51.508;4.288;2023-02-28T10:50:03;4.93;;;1.30;;
47403;SDS011;33157;51.508;4.288;2023-02-28T10:55:21;1.38;;;1.10;;
47403;SDS011;33157;51.508;4.288;2023-02-28T11:00:36;3.38;;;1.35;;
47403;SDS011;33157;51.508;4.288;2023-02-28T11:05:37;2.22;;;1.02;;
47403;SDS011;33157;51.508;4.288;2023-02-28T11:10:53;2.58;;;1.55;;
47403;SDS011;33157;51.508;4.288;2023-02-28T11:15:57;2.28;;;1.40;;
47403;SDS011;33157;51.508;4.288;2023-02-28T11:21:08;8.07;;;4.05;;
47403;SDS011;33157;51.508;4.288;2023-02-28T11:26:10;7.82;;;3.67;;
47403;SDS011;33157;51.508;4.288;2023-02-28T11:31:18;4.13;;;2.13;;
47403;SDS011;33157;51.508;4.288;2023-02-28T11:36:29;3.00;;;1.85;;
47403;SDS011;33157;51.508;4.288;2023-02-28T11:41:38;1.80;;;1.23;;
47403;SDS011;33157;51.508;4.288;2023-02-28T11:46:54;2.50;;;1.40;;
47403;SDS011;33157;51.508;4.288;2023-02-28T12:08:21;2.20;;;1.10;;
47403;SDS011;33157;51.508;4.288;2023-02-28T12:24:25;2.80;;;1.25;;
47403;SDS011;33157;51.508;4.288;2023-02-28T12:30:01;1.08;;;0.75;;
47403;SDS011;33157;51.508;4.288;2023-02-28T12:40:42;3.42;;;1.45;;
47403;SDS011;33157;51.508;4.288;2023-02-28T12:45:50;1.48;;;0.90;;
47403;SDS011;33157;51.508;4.288;2023-02-28T12:51:06;3.08;;;1.42;;
47403;SDS011;33157;51.508;4.288;2023-02-28T12:56:14;3.83;;;1.30;;
47403;SDS011;33157;51.508;4.288;2023-02-28T13:12:49;4.28;;;1.70;;
47403;SDS011;33157;51.508;4.288;2023-02-28T13:17:58;5.03;;;1.60;;
47403;SDS011;33157;51.508;4.288;2023-02-28T13:23:02;3.38;;;1.40;;
47403;SDS011;33157;51.508;4.288;2023-02-28T13:28:56;2.38;;;1.60;;
47403;SDS011;33157;51.508;4.288;2023-02-28T13:34:04;2.58;;;1.20;;
47403;SDS011;33157;51.508;4.288;2023-02-28T14:06:31;2.17;;;1.02;;
47403;SDS011;33157;51.508;4.288;2023-02-28T14:11:38;1.58;;;0.95;;
47403;SDS011;33157;51.508;4.288;2023-02-28T14:16:51;1.65;;;1.20;;
47403;SDS011;33157;51.508;4.288;2023-02-28T14:27:45;2.92;;;0.90;;
47403;SDS011;33157;51.508;4.288;2023-02-28T14:33:08;2.33;;;1.17;;
47403;SDS011;33157;51.508;4.288;2023-02-28T14:38:22;1.75;;;1.02;;
47403;SDS011;33157;51.508;4.288;2023-02-28T14:43:50;4.85;;;1.45;;
47403;SDS011;33157;51.508;4.288;2023-02-28T14:48:55;7.50;;;1.80;;
47403;SDS011;33157;51.508;4.288;2023-02-28T14:53:58;4.57;;;3.03;;
47403;SDS011;33157;51.508;4.288;2023-02-28T14:59:03;5.60;;;2.88;;
47403;SDS011;33157;51.508;4.288;2023-02-28T15:04:21;3.28;;;1.55;;
47403;SDS011;33157;51.508;4.288;2023-02-28T15:09:28;2.03;;;1.13;;
47403;SDS011;33157;51.508;4.288;2023-02-28T15:14:31;5.30;;;1.75;;
47403;SDS011;33157;51.508;4.288;2023-02-28T15:19:44;2.75;;;1.40;;
47403;SDS011;33157;51.508;4.288;2023-02-28T15:24:56;3.25;;;1.50;;
47403;SDS011;33157;51.508;4.288;2023-02-28T15:30:07;3.80;;;1.65;;
47403;SDS011;33157;51.508;4.288;2023-02-28T15:40:32;2.45;;;1.25;;
47403;SDS011;33157;51.508;4.288;2023-02-28T15:50:52;3.17;;;1.50;;
47403;SDS011;33157;51.508;4.288;2023-02-28T16:01:34;4.97;;;1.35;;
47403;SDS011;33157;51.508;4.288;2023-02-28T16:12:09;3.05;;;1.70;;
47403;SDS011;33157;51.508;4.288;2023-02-28T16:17:25;3.20;;;1.63;;
47403;SDS011;33157;51.508;4.288;2023-02-28T16:22:39;4.03;;;1.88;;
47403;SDS011;33157;51.508;4.288;2023-02-28T16:27:50;2.65;;;1.55;;
47403;SDS011;33157;51.508;4.288;2023-02-28T16:33:03;2.80;;;1.70;;
47403;SDS011;33157;51.508;4.288;2023-02-28T16:38:05;2.75;;;1.70;;
47403;SDS011;33157;51.508;4.288;2023-02-28T16:43:07;2.45;;;1.77;;
47403;SDS011;33157;51.508;4.288;2023-02-28T16:48:12;6.65;;;4.43;;
47403;SDS011;33157;51.508;4.288;2023-02-28T16:53:15;3.78;;;2.30;;
47403;SDS011;33157;51.508;4.288;2023-02-28T16:58:17;3.90;;;1.98;;
47403;SDS011;33157;51.508;4.288;2023-02-28T17:03:29;2.83;;;1.75;;
47403;SDS011;33157;51.508;4.288;2023-02-28T17:08:32;4.28;;;1.95;;
47403;SDS011;33157;51.508;4.288;2023-02-28T17:13:34;6.05;;;4.15;;
47403;SDS011;33157;51.508;4.288;2023-02-28T17:18:35;4.03;;;3.03;;
47403;SDS011;33157;51.508;4.288;2023-02-28T17:23:42;8.43;;;3.28;;
47403;SDS011;33157;51.508;4.288;2023-02-28T17:28:47;8.35;;;5.03;;
47403;SDS011;33157;51.508;4.288;2023-02-28T17:33:50;5.00;;;3.50;;
47403;SDS011;33157;51.508;4.288;2023-02-28T17:39:03;8.93;;;4.32;;
47403;SDS011;33157;51.508;4.288;2023-02-28T17:44:08;10.13;;;5.25;;
47403;SDS011;33157;51.508;4.288;2023-02-28T17:49:10;9.10;;;5.10;;
47403;SDS011;33157;51.508;4.288;2023-02-28T17:54:16;7.03;;;3.75;;
47403;SDS011;33157;51.508;4.288;2023-02-28T17:59:20;6.13;;;3.50;;
47403;SDS011;33157;51.508;4.288;2023-02-28T18:09:52;11.35;;;7.30;;
47403;SDS011;33157;51.508;4.288;2023-02-28T18:14:54;11.45;;;7.28;;
47403;SDS011;33157;51.508;4.288;2023-02-28T18:19:58;12.45;;;6.18;;
47403;SDS011;33157;51.508;4.288;2023-02-28T18:25:02;20.23;;;12.55;;
47403;SDS011;33157;51.508;4.288;2023-02-28T18:35:10;30.67;;;15.15;;
47403;SDS011;33157;51.508;4.288;2023-02-28T18:40:15;23.63;;;13.10;;
47403;SDS011;33157;51.508;4.288;2023-02-28T18:45:23;16.73;;;9.25;;
47403;SDS011;33157;51.508;4.288;2023-02-28T18:50:24;10.82;;;5.63;;
47403;SDS011;33157;51.508;4.288;2023-02-28T18:55:27;15.23;;;6.70;;
47403;SDS011;33157;51.508;4.288;2023-02-28T19:00:30;16.63;;;7.40;;
47403;SDS011;33157;51.508;4.288;2023-02-28T19:05:35;19.33;;;7.40;;
47403;SDS011;33157;51.508;4.288;2023-02-28T19:10:41;14.98;;;6.10;;
47403;SDS011;33157;51.508;4.288;2023-02-28T19:21:08;11.23;;;4.47;;
47403;SDS011;33157;51.508;4.288;2023-02-28T19:26:19;10.00;;;4.60;;
47403;SDS011;33157;51.508;4.288;2023-02-28T19:31:27;8.00;;;4.10;;
47403;SDS011;33157;51.508;4.288;2023-02-28T19:36:29;7.25;;;3.78;;
47403;SDS011;33157;51.508;4.288;2023-02-28T19:41:42;7.07;;;3.88;;
47403;SDS011;33157;51.508;4.288;2023-02-28T19:46:44;8.85;;;4.30;;
47403;SDS011;33157;51.508;4.288;2023-02-28T19:56:50;13.45;;;4.55;;
47403;SDS011;33157;51.508;4.288;2023-02-28T20:01:59;11.15;;;4.00;;
47403;SDS011;33157;51.508;4.288;2023-02-28T20:07:03;8.57;;;3.78;;
47403;SDS011;33157;51.508;4.288;2023-02-28T20:12:07;5.80;;;3.47;;
47403;SDS011;33157;51.508;4.288;2023-02-28T20:17:08;9.80;;;3.78;;
47403;SDS011;33157;51.508;4.288;2023-02-28T20:22:11;8.48;;;3.90;;
47403;SDS011;33157;51.508;4.288;2023-02-28T20:27:18;7.07;;;3.60;;
47403;SDS011;33157;51.508;4.288;2023-02-28T20:32:32;6.00;;;3.60;;
47403;SDS011;33157;51.508;4.288;2023-02-28T20:37:38;6.97;;;3.97;;
47403;SDS011;33157;51.508;4.288;2023-02-28T20:42:45;7.93;;;4.07;;
47403;SDS011;33157;51.508;4.288;2023-02-28T20:47:58;7.10;;;4.28;;
47403;SDS011;33157;51.508;4.288;2023-02-28T20:53:00;11.10;;;4.95;;
47403;SDS011;33157;51.508;4.288;2023-02-28T20:58:04;9.37;;;4.60;;
47403;SDS011;33157;51.508;4.288;2023-02-28T21:03:30;7.55;;;4.65;;
47403;SDS011;33157;51.508;4.288;2023-02-28T21:08:32;6.82;;;3.88;;
47403;SDS011;33157;51.508;4.288;2023-02-28T21:13:59;8.00;;;4.63;;
47403;SDS011;33157;51.508;4.288;2023-02-28T21:19:11;8.25;;;4.47;;
47403;SDS011;33157;51.508;4.288;2023-02-28T21:24:14;10.63;;;5.03;;
47403;SDS011;33157;51.508;4.288;2023-02-28T21:29:29;8.45;;;4.05;;
47403;SDS011;33157;51.508;4.288;2023-02-28T21:34:32;10.88;;;5.15;;
47403;SDS011;33157;51.508;4.288;2023-02-28T21:39:33;9.32;;;5.18;;
47403;SDS011;33157;51.508;4.288;2023-02-28T21:44:37;8.35;;;4.47;;
47403;SDS011;33157;51.508;4.288;2023-02-28T21:49:38;7.22;;;4.57;;
47403;SDS011;33157;51.508;4.288;2023-02-28T21:54:43;7.33;;;4.80;;
47403;SDS011;33157;51.508;4.288;2023-02-28T21:59:45;8.75;;;4.72;;
47403;SDS011;33157;51.508;4.288;2023-02-28T22:04:52;14.80;;;5.50;;
47403;SDS011;33157;51.508;4.288;2023-02-28T22:10:01;8.50;;;5.15;;
47403;SDS011;33157;51.508;4.288;2023-02-28T22:15:06;8.65;;;5.07;;
47403;SDS011;33157;51.508;4.288;2023-02-28T22:20:13;10.00;;;6.13;;
47403;SDS011;33157;51.508;4.288;2023-02-28T22:25:16;10.80;;;5.03;;
47403;SDS011;33157;51.508;4.288;2023-02-28T22:30:17;6.57;;;4.85;;
47403;SDS011;33157;51.508;4.288;2023-02-28T22:35:21;9.20;;;5.37;;
47403;SDS011;33157;51.508;4.288;2023-02-28T22:40:27;13.70;;;7.63;;
47403;SDS011;33157;51.508;4.288;2023-02-28T22:45:28;10.95;;;6.05;;
47403;SDS011;33157;51.508;4.288;2023-02-28T22:50:47;10.38;;;6.88;;
47403;SDS011;33157;51.508;4.288;2023-02-28T22:55:54;12.13;;;6.78;;
47403;SDS011;33157;51.508;4.288;2023-02-28T23:01:10;11.43;;;6.85;;
47403;SDS011;33157;51.508;4.288;2023-02-28T23:06:14;14.13;;;7.32;;
47403;SDS011;33157;51.508;4.288;2023-02-28T23:11:27;12.38;;;7.28;;
47403;SDS011;33157;51.508;4.288;2023-02-28T23:16:49;13.13;;;7.07;;
47403;SDS011;33157;51.508;4.288;2023-02-28T23:22:10;8.95;;;6.20;;
47403;SDS011;33157;51.508;4.288;2023-02-28T23:27:26;13.68;;;8.10;;
47403;SDS011;33157;51.508;4.288;2023-02-28T23:32:28;14.43;;;8.38;;
47403;SDS011;33157;51.508;4.288;2023-02-28T23:37:29;12.90;;;7.72;;
47403;SDS011;33157;51.508;4.288;2023-02-28T23:42:32;13.43;;;7.93;;
47403;SDS011;33157;51.508;4.288;2023-02-28T23:47:33;15.18;;;8.18;;
47403;SDS011;33157;51.508;4.288;2023-02-28T23:52:35;13.18;;;7.97;;
47403;SDS011;33157;51.508;4.288;2023-02-28T23:57:36;13.45;;;8.68;;
